Augusta, Georgia
Current Conditions -  °F | °C
As of 8:53 AM on Sunday 25 Jan 2015 (Local Time) from KDNL Reporting Station
Clear Clear  
Wind Chill: 37°   Ceiling: Unl
Heat Index: 40°   Visibility: 10mi
Dew Point: 30°   Wind: 5mph
Humidity: 68%   Direction: 230°SW
Pressure: 29.99"   Gusts: NA
Location:  33.48°N, 81.97°W
Report Text: KDNL 251353Z AUTO 23004KT 10SM CLR 04/M01 A2999 RMK AO2 SLP156 T00441011
Loading
Personal Weather Stations






























Interactive Weather Map New forecast layout! Learn more

10-Day Weather Forecast

Advertisements
Track Severe Weather on mobile